LEGY weather

Garray Airport
Soria, Castilla y León, Spain

Public forecast

Using degrees Celsius for public forecast. Weather courtesy of forecast.io.

Closest aviation weather report (METAR) to Garray Airport

Closest report is Logroño-Agoncillo Airport, 38.9 nm (72.1 km) N. Retrieved UTC (0 seconds ago):

Closest aviation forecast (TAF) to Garray Airport

Closest forecast is Vitoria/Foronda Airport, 64.6 nm (119.6 km) N. Retrieved 2019/10/19 18:27 UTC (26 minutes ago):

TAF LEVT 191700Z 1918/2018 VRB05KT 9999 SCT030 TX21/2015Z TN11/2006Z TEMPO 1918/1924 01010KT TEMPO 1918/2018 27010KT 3000 RA BKN010